Terminal Aerodrome Forecast
Issued by NWS Topeka, KS

Home | Current Version | Previous Version | Text Only | Print | Product List | Glossary On
Versions: 1 2 3 4 5 6 7 8 9 10 11 12 13 14 15 16 17
434
FTUS43 KTOP 291120
TAFTOP
TAF
KTOP 291120Z 2912/3012 07003KT P6SM SCT200
     FM291500 08008KT P6SM SCT040
     FM300400 08003KT P6SM BKN200=

USA.gov is the U.S. government's official web portal to all federal, state and local government web resources and services.